GCGM Airport Information

Runway Information
Runway 09 Length 4921 ft width 98 ft
Elevation 716 ft Threshold 0 ft Heading 81
Runway 27 Length 4921 ft Width 98 ft
Elevation 712 ft Threshold 0 ft Heading 261
Airport Frequencies
Type GND Name GND Frequency 121.7 MHZ
Type TWR Name TWR Frequency 118.4 MHZ
Airport Navaids
Type VOR-DME Name La Gomera Frequency 116000 KHZ
Airport Weather Information & NOTAM
ADDS - METARS form results

(0358 UTC 15 November 2018)
Data provider http://aviationweather.gov/metar/data/
 
METAR text: GCGM 150330Z AUTO 29007KT 9999 NCD 17/09 Q1016 RMK R09/29007KT ARP/30006KT
Conditions at: GCGM (LA GOMERA ARPT , ES) observed 0330 UTC 15 November 2018
Temperature: 17.0°C (63°F)
Dewpoint: 9.0°C (48°F) [RH = 59%]
Pressure (altimeter): 30.00 inches Hg (1016.0 mb)
Winds: from the WNW (290 degrees) at 8 MPH (7 knots; 3.6 m/s)
Visibility: 6 or more miles (10+ km)
Ceiling: at least 12,000 feet AGL
Clouds: sky clear below 12,000 feet AGL
Weather: no significant weather observed at this time

METAR text: GCGM 150300Z AUTO 28004KT 9999 NCD 17/10 Q1016 RMK R09/29005KT 260V320 ARP/29005KT 260V320
Conditions at: GCGM (LA GOMERA ARPT , ES) observed 0300 UTC 15 November 2018
Temperature: 17.0°C (63°F)
Dewpoint: 10.0°C (50°F) [RH = 63%]
Pressure (altimeter): 30.00 inches Hg (1016.0 mb)
Winds: from the W (280 degrees) at 5 MPH (4 knots; 2.1 m/s)
Visibility: 6 or more miles (10+ km)
Ceiling: at least 12,000 feet AGL
Clouds: sky clear below 12,000 feet AGL
Weather: no significant weather observed at this time

Forecast for: GCGM (LA GOMERA ARPT , ES)
Text: TAF GCGM 150200Z 1503/1603 27008KT 9999 BKN040 TX23/1514Z TN17/1506Z
Forecast period: 0300 UTC 15 November 2018 to 0300 UTC 16 November 2018
Forecast type: FROM: standard forecast or significant change
Winds: from the W (270 degrees) at 9 MPH (8 knots; 4.1 m/s)
Visibility: 6 or more miles 10+ km)
Ceiling: 4000 feet AGL
Clouds: broken clouds at 4000 feet AGL
Weather: no significant weather forecast for this period
Text: PROB30
Forecast period: 0900 to 1200 UTC 15 November 2018
Forecast type: TEMPORARY: The following changes expected for less than half the time period
Visibility: missing
Ceiling: unknown
Clouds: missing
Weather: RA  (moderate rain)